Terminal Aerodrome Forecast
Issued by NWS Sterling, VA

Home | Current Version | Previous Version | Text Only | Print | Product List | Glossary On
Versions: 1 2 3 4 5 6 7 8 9 10 11 12 13 14 15 16 17 18 19 20 21
000
FTUS41 KLWX 240847 AAA
TAFIAD
TAF AMD
KIAD 240847Z 2409/2512 34004KT P6SM SCT140
     FM241700 17004KT P6SM SCT050
     FM250600 VRB03KT P6SM SCT250
     FM250900 VRB03KT 5SM BR SCT200=

USA.gov is the U.S. government's official web portal to all federal, state and local government web resources and services.